Theologos P . — SZNB — position and weather

sailwx.info

Track history (hours):
 
Tides and Currents Weather Stations Pressure Air Temp Water Temp Dewpoint Dewpoint Depression Visibility Wind Speed Wind Dir Waves Ship Positions

Theologos P .

Last reported at 2014-Aug-29 09:33 UTC. Time now 2014-Aug-29 10:17 UTC.
Position N 38°01' E 024°03'.

Length 118 m; draft 4.5 m.

Type: Passenger vessel. MMSI: 240521000.

Date/timePositionNaut miles runAvg speedWind from/ knotsBaromVisibWave heightAir tempDewpointWater temp
2014-Aug-29 09:33N 38°01' E 024°03'1918.9
2014-Aug-29 08:32N 37°54' E 024°26'2211.3
2014-Aug-29 06:33N 37°44' E 024°51'1818.6
2014-Aug-29 05:33N 37°32' E 025°09'10 9.5
2014-Aug-29 04:33N 37°28' E 025°20'0 0.0
2014-Aug-29 03:33N 37°28' E 025°20'0 0.0
2014-Aug-29 02:33N 37°28' E 025°20'0 0.0
2014-Aug-29 01:33N 37°28' E 025°20'0 0.0
2014-Aug-29 00:33N 37°28' E 025°20'0 0.0
2014-Aug-28 23:33N 37°28' E 025°20'0 0.0
2014-Aug-28 22:33N 37°28' E 025°20'0 0.0
2014-Aug-28 21:33N 37°28' E 025°20'0 0.0
2014-Aug-28 20:33N 37°28' E 025°20'0 0.0
2014-Aug-28 19:33N 37°28' E 025°20'9 9.2
2014-Aug-28 18:33N 37°32' E 025°09'4414.8
2014-Aug-28 15:33N 37°56' E 024°22'14 2.4
2014-Aug-28 09:30N 38°01' E 024°05'2218.9
2014-Aug-28 08:19N 37°54' E 024°32'2111.6
2014-Aug-28 06:29N 37°42' E 024°54'1616.8
2014-Aug-28 05:33N 37°32' E 025°09'9 9.3
2014-Aug-28 04:33N 37°28' E 025°20'0 0.0
2014-Aug-28 03:33N 37°28' E 025°20'0 0.0
2014-Aug-28 02:33N 37°28' E 025°20'0 0.0
2014-Aug-28 01:33N 37°28' E 025°20'0 0.0
2014-Aug-28 00:33N 37°28' E 025°20'0 0.0
2014-Aug-27 23:33N 37°28' E 025°20'0 0.0
2014-Aug-27 22:33N 37°28' E 025°20'0 0.0
2014-Aug-27 21:33N 37°28' E 025°20'0 0.0
2014-Aug-27 20:33N 37°28' E 025°20'0 0.0
2014-Aug-27 19:33N 37°28' E 025°20'9 9.3
2014-Aug-27 18:33N 37°32' E 025°09'3414.4
2014-Aug-27 16:10N 37°53' E 024°35'1118.3
2014-Aug-27 15:33N 37°56' E 024°21'15 2.5
2014-Aug-27 09:26N 38°01' E 024°03'4714.4
2014-Aug-27 06:10N 37°40' E 024°56'1218.4
2014-Aug-27 05:32N 37°33' E 025°07'1111.0
2014-Aug-27 04:33N 37°28' E 025°20'0 0.0
2014-Aug-27 03:33N 37°28' E 025°20'0 0.0
2014-Aug-27 02:33N 37°28' E 025°20'0 0.0
2014-Aug-27 01:33N 37°28' E 025°20'0 0.0
2014-Aug-27 00:33N 37°28' E 025°20'0 0.0
2014-Aug-26 23:33N 37°28' E 025°20'0 0.0
2014-Aug-26 22:33N 37°28' E 025°20'0 0.0
2014-Aug-26 21:33N 37°28' E 025°20'0 0.0
2014-Aug-26 20:33N 37°28' E 025°20'0 0.0
2014-Aug-26 19:33N 37°28' E 025°20'9 9.3
2014-Aug-26 18:34N 37°32' E 025°09'1716.8
2014-Aug-26 17:33N 37°43' E 024°53'1912.9
2014-Aug-26 16:04N 37°54' E 024°33'917.9
2014-Aug-26 15:33N 37°56' E 024°22'10 1.7
2014-Aug-26 09:25N 37°59' E 024°09'1719.2
2014-Aug-26 08:31N 37°54' E 024°30'2110.7
2014-Aug-26 06:33N 37°43' E 024°53'1716.8
2014-Aug-26 05:33N 37°32' E 025°09'9 9.3
2014-Aug-26 04:33N 37°28' E 025°20'0 0.0
2014-Aug-26 03:33N 37°28' E 025°20'0 0.0
2014-Aug-26 02:33N 37°28' E 025°20'0 0.0
2014-Aug-26 01:33N 37°28' E 025°20'0 0.0
2014-Aug-26 00:33N 37°28' E 025°20'0 0.0
2014-Aug-25 23:33N 37°28' E 025°20'0 0.0
2014-Aug-25 22:33N 37°28' E 025°20'0 0.0
2014-Aug-25 21:33N 37°28' E 025°20'0 0.0
2014-Aug-25 20:33N 37°28' E 025°20'0 0.0
2014-Aug-25 19:33N 37°28' E 025°20'9 9.3
2014-Aug-25 18:34N 37°32' E 025°09'3314.0
2014-Aug-25 16:10N 37°53' E 024°36'1118.1
2014-Aug-25 15:33N 37°56' E 024°23'13 2.1
2014-Aug-25 09:29N 37°60' E 024°07'1918.8
2014-Aug-25 08:30N 37°54' E 024°30'2210.9
2014-Aug-25 06:31N 37°42' E 024°53'1717.3
2014-Aug-25 05:33N 37°32' E 025°09'9 9.3
2014-Aug-25 04:33N 37°28' E 025°20'0 0.0
2014-Aug-25 03:33N 37°28' E 025°20'0 0.0
2014-Aug-25 02:33N 37°28' E 025°20'0 0.0
2014-Aug-25 01:33N 37°28' E 025°20'0 0.0
2014-Aug-25 00:33N 37°28' E 025°20'9 8.6
2014-Aug-24 23:34N 37°31' E 025°10'2115.4
2014-Aug-24 22:12N 37°42' E 024°47'1219.0
2014-Aug-24 21:33N 37°48' E 024°33'1919.3
2014-Aug-24 20:34N 37°57' E 024°12'10 8.3
2014-Aug-24 19:23N 38°01' E 024°01'1518.5
2014-Aug-24 18:33N 37°56' E 024°19'1919.3
2014-Aug-24 17:32N 37°52' E 024°43'0 0.3
2014-Aug-24 16:34N 37°52' E 024°43'1918.9
2014-Aug-24 15:33N 37°56' E 024°20'1610.4
2014-Aug-24 14:04N 38°02' E 024°01'1018.6
2014-Aug-24 13:31N 37°58' E 024°13'1919.1
2014-Aug-24 12:32N 37°53' E 024°36'2211.4
2014-Aug-24 10:33N 37°39' E 024°58'1111.2
2014-Aug-24 09:33N 37°32' E 025°09'9 9.2
2014-Aug-24 08:33N 37°28' E 025°20'0 0.0
2014-Aug-24 07:33N 37°28' E 025°20'0 0.0
2014-Aug-24 06:33N 37°28' E 025°20'0 0.0
2014-Aug-24 05:33N 37°28' E 025°20'0 0.0
2014-Aug-24 04:33N 37°28' E 025°20'0 0.0
2014-Aug-24 03:33N 37°28' E 025°20'0 0.0
2014-Aug-24 02:33N 37°28' E 025°20'0 0.0
2014-Aug-24 01:33N 37°28' E 025°20'0 0.0
2014-Aug-24 00:33N 37°28' E 025°20'0 0.0
2014-Aug-23 23:33N 37°28' E 025°20'0 0.0
2014-Aug-23 22:33N 37°28' E 025°20'0 0.0
2014-Aug-23 21:33N 37°28' E 025°20'0 0.0
2014-Aug-23 20:33N 37°28' E 025°20'0 0.0
2014-Aug-23 19:33N 37°28' E 025°20'71 4.4
2014-Aug-23 03:18N 38°01' E 024°01'10 2.6
2014-Aug-22 23:33N 37°57' E 024°12'1919.2
2014-Aug-22 22:33N 37°47' E 024°32'1919.3
2014-Aug-22 21:33N 37°37' E 024°54'1919.0
2014-Aug-22 20:33N 37°29' E 025°15'4 3.6
2014-Aug-22 19:33N 37°28' E 025°19'9 9.1
2014-Aug-22 18:33N 37°32' E 025°09'1716.9
2014-Aug-22 17:31N 37°43' E 024°52'1211.2
2014-Aug-22 16:25N 37°52' E 024°41'1618.3
2014-Aug-22 15:33N 37°56' E 024°22'1717.3
2014-Aug-22 14:33N 38°01' E 024°01'0 0.0
2014-Aug-22 11:25N 38°01' E 024°01'1 0.6
2014-Aug-22 09:09N 38°01' E 024°02'1118.9
2014-Aug-22 08:33N 37°57' E 024°16'1918.6
2014-Aug-22 07:33N 37°53' E 024°39'1612.5
2014-Aug-22 06:17N 37°42' E 024°54'1419.1
2014-Aug-22 05:33N 37°33' E 025°07'1111.3
2014-Aug-22 04:33N 37°28' E 025°20'0 0.0
2014-Aug-22 03:33N 37°28' E 025°20'0 0.0
2014-Aug-22 02:33N 37°28' E 025°20'0 0.0
2014-Aug-22 01:33N 37°28' E 025°20'0 0.0
2014-Aug-22 00:33N 37°28' E 025°20'0 0.0
2014-Aug-21 23:33N 37°28' E 025°20'0 0.0
2014-Aug-21 22:33N 37°28' E 025°20'0 0.0
2014-Aug-21 21:33N 37°28' E 025°20'0 0.0
2014-Aug-21 20:33N 37°28' E 025°20'0 0.0
2014-Aug-21 19:33N 37°28' E 025°20'9 9.4
2014-Aug-21 18:33N 37°32' E 025°09'1918.4
2014-Aug-21 17:31N 37°45' E 024°51'1110.2
2014-Aug-21 16:27N 37°52' E 024°41'1718.6
2014-Aug-21 15:32N 37°56' E 024°20'15 2.5
2014-Aug-21 09:24N 38°01' E 024°01'1618.8
2014-Aug-21 08:33N 37°56' E 024°20'2914.1
2014-Aug-21 06:30N 37°43' E 024°53'1717.7
2014-Aug-21 05:33N 37°32' E 025°09'9 9.2
2014-Aug-21 04:33N 37°28' E 025°20'0 0.0
2014-Aug-21 03:33N 37°28' E 025°20'0 0.0
2014-Aug-21 02:33N 37°28' E 025°20'0 0.0
2014-Aug-21 01:34N 37°28' E 025°20'0 0.0
2014-Aug-21 00:33N 37°28' E 025°20'0 0.0
2014-Aug-20 23:32N 37°28' E 025°20'0 0.0
2014-Aug-20 22:34N 37°28' E 025°20'0 0.0
2014-Aug-20 21:34N 37°28' E 025°20'0 0.0
2014-Aug-20 20:34N 37°28' E 025°20'0 0.0
2014-Aug-20 19:34N 37°28' E 025°20'9 9.2
2014-Aug-20 18:33N 37°32' E 025°09'3113.8
2014-Aug-20 16:19N 37°52' E 024°40'1418.4
2014-Aug-20 15:33N 37°56' E 024°23'3 0.5
2014-Aug-20 08:33N 37°56' E 024°19'3014.1
2014-Aug-20 06:25N 37°43' E 024°53'1619.0
2014-Aug-20 05:33N 37°32' E 025°08'1010.0
2014-Aug-20 04:33N 37°28' E 025°20'0 0.0
2014-Aug-20 03:33N 37°28' E 025°20'0 0.0
2014-Aug-20 02:33N 37°28' E 025°20'0 0.0
2014-Aug-20 01:33N 37°28' E 025°20'0 0.0
2014-Aug-20 00:33N 37°28' E 025°20'0 0.0
2014-Aug-19 23:33N 37°28' E 025°20'0 0.0
2014-Aug-19 22:33N 37°28' E 025°20'0 0.0
2014-Aug-19 21:33N 37°28' E 025°20'0 0.0
2014-Aug-19 20:33N 37°28' E 025°20'0 0.0
2014-Aug-19 19:33N 37°28' E 025°20'9 9.2
2014-Aug-19 18:33N 37°32' E 025°09'1818.0
2014-Aug-19 17:33N 37°44' E 024°52'  
Track history (hours):
 
Tides and Currents Weather Stations Pressure Air Temp Water Temp Dewpoint Dewpoint Depression Visibility Wind Speed Wind Dir Waves Ship Positions

Theologos P .

Last reported at 2014-Aug-29 09:33 UTC. Time now 2014-Aug-29 10:17 UTC.
Position N 38°01' E 024°03'.

Length 118 m; draft 4.5 m.

Type: Passenger vessel. MMSI: 240521000.

Date/timePositionNaut miles runAvg speedWind from/ knotsBaromVisibWave heightAir tempDewpointWater temp
2014-Aug-29 09:33N 38°01' E 024°03'1918.9
2014-Aug-29 08:32N 37°54' E 024°26'2211.3
2014-Aug-29 06:33N 37°44' E 024°51'1818.6
2014-Aug-29 05:33N 37°32' E 025°09'10 9.5
2014-Aug-29 04:33N 37°28' E 025°20'0 0.0
2014-Aug-29 03:33N 37°28' E 025°20'0 0.0
2014-Aug-29 02:33N 37°28' E 025°20'0 0.0
2014-Aug-29 01:33N 37°28' E 025°20'0 0.0
2014-Aug-29 00:33N 37°28' E 025°20'0 0.0
2014-Aug-28 23:33N 37°28' E 025°20'0 0.0
2014-Aug-28 22:33N 37°28' E 025°20'0 0.0
2014-Aug-28 21:33N 37°28' E 025°20'0 0.0
2014-Aug-28 20:33N 37°28' E 025°20'0 0.0
2014-Aug-28 19:33N 37°28' E 025°20'9 9.2
2014-Aug-28 18:33N 37°32' E 025°09'4414.8
2014-Aug-28 15:33N 37°56' E 024°22'14 2.4
2014-Aug-28 09:30N 38°01' E 024°05'2218.9
2014-Aug-28 08:19N 37°54' E 024°32'2111.6
2014-Aug-28 06:29N 37°42' E 024°54'1616.8
2014-Aug-28 05:33N 37°32' E 025°09'9 9.3
2014-Aug-28 04:33N 37°28' E 025°20'0 0.0
2014-Aug-28 03:33N 37°28' E 025°20'0 0.0
2014-Aug-28 02:33N 37°28' E 025°20'0 0.0
2014-Aug-28 01:33N 37°28' E 025°20'0 0.0
2014-Aug-28 00:33N 37°28' E 025°20'0 0.0
2014-Aug-27 23:33N 37°28' E 025°20'0 0.0
2014-Aug-27 22:33N 37°28' E 025°20'0 0.0
2014-Aug-27 21:33N 37°28' E 025°20'0 0.0
2014-Aug-27 20:33N 37°28' E 025°20'0 0.0
2014-Aug-27 19:33N 37°28' E 025°20'9 9.3
2014-Aug-27 18:33N 37°32' E 025°09'3414.4
2014-Aug-27 16:10N 37°53' E 024°35'1118.3
2014-Aug-27 15:33N 37°56' E 024°21'15 2.5
2014-Aug-27 09:26N 38°01' E 024°03'4714.4
2014-Aug-27 06:10N 37°40' E 024°56'1218.4
2014-Aug-27 05:32N 37°33' E 025°07'1111.0
2014-Aug-27 04:33N 37°28' E 025°20'0 0.0
2014-Aug-27 03:33N 37°28' E 025°20'0 0.0
2014-Aug-27 02:33N 37°28' E 025°20'0 0.0
2014-Aug-27 01:33N 37°28' E 025°20'0 0.0
2014-Aug-27 00:33N 37°28' E 025°20'0 0.0
2014-Aug-26 23:33N 37°28' E 025°20'0 0.0
2014-Aug-26 22:33N 37°28' E 025°20'0 0.0
2014-Aug-26 21:33N 37°28' E 025°20'0 0.0
2014-Aug-26 20:33N 37°28' E 025°20'0 0.0
2014-Aug-26 19:33N 37°28' E 025°20'9 9.3
2014-Aug-26 18:34N 37°32' E 025°09'1716.8
2014-Aug-26 17:33N 37°43' E 024°53'1912.9
2014-Aug-26 16:04N 37°54' E 024°33'917.9
2014-Aug-26 15:33N 37°56' E 024°22'10 1.7
2014-Aug-26 09:25N 37°59' E 024°09'1719.2
2014-Aug-26 08:31N 37°54' E 024°30'2110.7
2014-Aug-26 06:33N 37°43' E 024°53'1716.8
2014-Aug-26 05:33N 37°32' E 025°09'9 9.3
2014-Aug-26 04:33N 37°28' E 025°20'0 0.0
2014-Aug-26 03:33N 37°28' E 025°20'0 0.0
2014-Aug-26 02:33N 37°28' E 025°20'0 0.0
2014-Aug-26 01:33N 37°28' E 025°20'0 0.0
2014-Aug-26 00:33N 37°28' E 025°20'0 0.0
2014-Aug-25 23:33N 37°28' E 025°20'0 0.0
2014-Aug-25 22:33N 37°28' E 025°20'0 0.0
2014-Aug-25 21:33N 37°28' E 025°20'0 0.0
2014-Aug-25 20:33N 37°28' E 025°20'0 0.0
2014-Aug-25 19:33N 37°28' E 025°20'9 9.3
2014-Aug-25 18:34N 37°32' E 025°09'3314.0
2014-Aug-25 16:10N 37°53' E 024°36'1118.1
2014-Aug-25 15:33N 37°56' E 024°23'13 2.1
2014-Aug-25 09:29N 37°60' E 024°07'1918.8
2014-Aug-25 08:30N 37°54' E 024°30'2210.9
2014-Aug-25 06:31N 37°42' E 024°53'1717.3
2014-Aug-25 05:33N 37°32' E 025°09'9 9.3
2014-Aug-25 04:33N 37°28' E 025°20'0 0.0
2014-Aug-25 03:33N 37°28' E 025°20'0 0.0
2014-Aug-25 02:33N 37°28' E 025°20'0 0.0
2014-Aug-25 01:33N 37°28' E 025°20'0 0.0
2014-Aug-25 00:33N 37°28' E 025°20'9 8.6
2014-Aug-24 23:34N 37°31' E 025°10'2115.4
2014-Aug-24 22:12N 37°42' E 024°47'1219.0
2014-Aug-24 21:33N 37°48' E 024°33'1919.3
2014-Aug-24 20:34N 37°57' E 024°12'10 8.3
2014-Aug-24 19:23N 38°01' E 024°01'1518.5
2014-Aug-24 18:33N 37°56' E 024°19'1919.3
2014-Aug-24 17:32N 37°52' E 024°43'0 0.3
2014-Aug-24 16:34N 37°52' E 024°43'1918.9
2014-Aug-24 15:33N 37°56' E 024°20'1610.4
2014-Aug-24 14:04N 38°02' E 024°01'1018.6
2014-Aug-24 13:31N 37°58' E 024°13'1919.1
2014-Aug-24 12:32N 37°53' E 024°36'2211.4
2014-Aug-24 10:33N 37°39' E 024°58'1111.2
2014-Aug-24 09:33N 37°32' E 025°09'9 9.2
2014-Aug-24 08:33N 37°28' E 025°20'0 0.0
2014-Aug-24 07:33N 37°28' E 025°20'0 0.0
2014-Aug-24 06:33N 37°28' E 025°20'0 0.0
2014-Aug-24 05:33N 37°28' E 025°20'0 0.0
2014-Aug-24 04:33N 37°28' E 025°20'0 0.0
2014-Aug-24 03:33N 37°28' E 025°20'0 0.0
2014-Aug-24 02:33N 37°28' E 025°20'0 0.0
2014-Aug-24 01:33N 37°28' E 025°20'0 0.0
2014-Aug-24 00:33N 37°28' E 025°20'0 0.0
2014-Aug-23 23:33N 37°28' E 025°20'0 0.0
2014-Aug-23 22:33N 37°28' E 025°20'0 0.0
2014-Aug-23 21:33N 37°28' E 025°20'0 0.0
2014-Aug-23 20:33N 37°28' E 025°20'0 0.0
2014-Aug-23 19:33N 37°28' E 025°20'71 4.4
2014-Aug-23 03:18N 38°01' E 024°01'10 2.6
2014-Aug-22 23:33N 37°57' E 024°12'1919.2
2014-Aug-22 22:33N 37°47' E 024°32'1919.3
2014-Aug-22 21:33N 37°37' E 024°54'1919.0
2014-Aug-22 20:33N 37°29' E 025°15'4 3.6
2014-Aug-22 19:33N 37°28' E 025°19'9 9.1
2014-Aug-22 18:33N 37°32' E 025°09'1716.9
2014-Aug-22 17:31N 37°43' E 024°52'1211.2
2014-Aug-22 16:25N 37°52' E 024°41'1618.3
2014-Aug-22 15:33N 37°56' E 024°22'1717.3
2014-Aug-22 14:33N 38°01' E 024°01'0 0.0
2014-Aug-22 11:25N 38°01' E 024°01'1 0.6
2014-Aug-22 09:09N 38°01' E 024°02'1118.9
2014-Aug-22 08:33N 37°57' E 024°16'1918.6
2014-Aug-22 07:33N 37°53' E 024°39'1612.5
2014-Aug-22 06:17N 37°42' E 024°54'1419.1
2014-Aug-22 05:33N 37°33' E 025°07'1111.3
2014-Aug-22 04:33N 37°28' E 025°20'0 0.0
2014-Aug-22 03:33N 37°28' E 025°20'0 0.0
2014-Aug-22 02:33N 37°28' E 025°20'0 0.0
2014-Aug-22 01:33N 37°28' E 025°20'0 0.0
2014-Aug-22 00:33N 37°28' E 025°20'0 0.0
2014-Aug-21 23:33N 37°28' E 025°20'0 0.0
2014-Aug-21 22:33N 37°28' E 025°20'0 0.0
2014-Aug-21 21:33N 37°28' E 025°20'0 0.0
2014-Aug-21 20:33N 37°28' E 025°20'0 0.0
2014-Aug-21 19:33N 37°28' E 025°20'9 9.4
2014-Aug-21 18:33N 37°32' E 025°09'1918.4
2014-Aug-21 17:31N 37°45' E 024°51'1110.2
2014-Aug-21 16:27N 37°52' E 024°41'1718.6
2014-Aug-21 15:32N 37°56' E 024°20'15 2.5
2014-Aug-21 09:24N 38°01' E 024°01'1618.8
2014-Aug-21 08:33N 37°56' E 024°20'2914.1
2014-Aug-21 06:30N 37°43' E 024°53'1717.7
2014-Aug-21 05:33N 37°32' E 025°09'9 9.2
2014-Aug-21 04:33N 37°28' E 025°20'0 0.0
2014-Aug-21 03:33N 37°28' E 025°20'0 0.0
2014-Aug-21 02:33N 37°28' E 025°20'0 0.0
2014-Aug-21 01:34N 37°28' E 025°20'0 0.0
2014-Aug-21 00:33N 37°28' E 025°20'0 0.0
2014-Aug-20 23:32N 37°28' E 025°20'0 0.0
2014-Aug-20 22:34N 37°28' E 025°20'0 0.0
2014-Aug-20 21:34N 37°28' E 025°20'0 0.0
2014-Aug-20 20:34N 37°28' E 025°20'0 0.0
2014-Aug-20 19:34N 37°28' E 025°20'9 9.2
2014-Aug-20 18:33N 37°32' E 025°09'3113.8
2014-Aug-20 16:19N 37°52' E 024°40'1418.4
2014-Aug-20 15:33N 37°56' E 024°23'3 0.5
2014-Aug-20 08:33N 37°56' E 024°19'3014.1
2014-Aug-20 06:25N 37°43' E 024°53'1619.0
2014-Aug-20 05:33N 37°32' E 025°08'1010.0
2014-Aug-20 04:33N 37°28' E 025°20'0 0.0
2014-Aug-20 03:33N 37°28' E 025°20'0 0.0
2014-Aug-20 02:33N 37°28' E 025°20'0 0.0
2014-Aug-20 01:33N 37°28' E 025°20'0 0.0
2014-Aug-20 00:33N 37°28' E 025°20'0 0.0
2014-Aug-19 23:33N 37°28' E 025°20'0 0.0
2014-Aug-19 22:33N 37°28' E 025°20'0 0.0
2014-Aug-19 21:33N 37°28' E 025°20'0 0.0
2014-Aug-19 20:33N 37°28' E 025°20'0 0.0
2014-Aug-19 19:33N 37°28' E 025°20'9 9.2
2014-Aug-19 18:33N 37°32' E 025°09'1818.0
2014-Aug-19 17:33N 37°44' E 024°52'  

Dump ship's entire track history